Wetterdaten: Woche 05.08.13 - 11.08.13 (KW32)
Datum Zeit Temp. Aussen +5cm Feuchte Auss Luftdruck Regen Sonnenschein Regendauer UV Solar Windben
05.08.2013 00:00 18,7 C 16,2 C 75 % 1019,0 hPa 0,0 l/m 0,00 h 0,00 h 0,0 UV-I 0 W/m 0,0 km/h (0 Bft)
05.08.2013 01:00 18,1 C 15,7 C 78 % 1018,8 hPa 0,0 l/m 0,00 h 0,00 h 0,0 UV-I 0 W/m 0,0 km/h (0 Bft)
05.08.2013 02:00 17,5 C 15,4 C 80 % 1018,7 hPa 0,0 l/m 0,00 h 0,00 h 0,0 UV-I 0 W/m 0,0 km/h (0 Bft)
05.08.2013 03:00 16,9 C 14,9 C 82 % 1018,6 hPa 0,0 l/m 0,00 h 0,00 h 0,0 UV-I 0 W/m 0,0 km/h (0 Bft)
05.08.2013 04:00 16,4 C 14,8 C 84 % 1018,2 hPa 0,0 l/m 0,00 h 0,00 h 0,0 UV-I 0 W/m 0,0 km/h (0 Bft)
05.08.2013 05:00 15,9 C 14,7 C 86 % 1017,9 hPa 0,0 l/m 0,00 h 0,00 h 0,0 UV-I 0 W/m 0,0 km/h (0 Bft)
05.08.2013 06:00 15,4 C 14,6 C 87 % 1017,6 hPa 0,0 l/m 0,00 h 0,00 h 0,0 UV-I 15 W/m 0,0 km/h (0 Bft)
05.08.2013 07:00 16,3 C 15,3 C 87 % 1017,4 hPa 0,0 l/m 0,00 h 0,00 h 0,0 UV-I 35 W/m 0,0 km/h (0 Bft)
05.08.2013 08:00 18,7 C 17,5 C 81 % 1017,0 hPa 0,0 l/m 0,60 h 0,00 h 0,5 UV-I 207 W/m 0,0 km/h (0 Bft)
05.08.2013 09:00 22,2 C 21,2 C 70 % 1016,7 hPa 0,0 l/m 0,97 h 0,00 h 1,1 UV-I 425 W/m 1,2 km/h (1 Bft)
05.08.2013 10:00 25,6 C 30,3 C 59 % 1016,4 hPa 0,0 l/m 0,97 h 0,00 h 2,3 UV-I 563 W/m 12,5 km/h (3 Bft)
05.08.2013 11:00 28,2 C 31,5 C 51 % 1016,0 hPa 0,0 l/m 0,97 h 0,00 h 3,6 UV-I 676 W/m 11,4 km/h (2 Bft)
05.08.2013 12:00 29,8 C 33,5 C 45 % 1015,4 hPa 0,0 l/m 0,97 h 0,00 h 4,5 UV-I 758 W/m 10,9 km/h (2 Bft)
05.08.2013 13:00 30,6 C 31,0 C 46 % 1014,5 hPa 0,0 l/m 0,87 h 0,00 h 3,0 UV-I 757 W/m 13,7 km/h (3 Bft)
05.08.2013 14:00 31,0 C 30,9 C 46 % 1013,9 hPa 0,0 l/m 0,73 h 0,00 h 3,8 UV-I 629 W/m 11,3 km/h (2 Bft)
05.08.2013 15:00 31,1 C 31,0 C 46 % 1013,1 hPa 0,0 l/m 0,60 h 0,00 h 3,1 UV-I 548 W/m 10,8 km/h (2 Bft)
05.08.2013 16:00 31,1 C 30,5 C 46 % 1012,3 hPa 0,0 l/m 0,27 h 0,00 h 2,0 UV-I 347 W/m 10,1 km/h (2 Bft)
05.08.2013 17:00 31,1 C 29,8 C 46 % 1011,7 hPa 0,0 l/m 0,60 h 0,00 h 1,5 UV-I 353 W/m 6,4 km/h (2 Bft)
05.08.2013 18:00 30,7 C 29,2 C 47 % 1011,2 hPa 0,0 l/m 0,20 h 0,00 h 0,7 UV-I 198 W/m 4,6 km/h (1 Bft)
05.08.2013 19:00 29,6 C 26,7 C 48 % 1011,2 hPa 0,0 l/m 0,00 h 0,00 h 0,0 UV-I 42 W/m 2,8 km/h (1 Bft)
05.08.2013 20:00 27,8 C 24,8 C 53 % 1011,1 hPa 0,0 l/m 0,00 h 0,00 h 0,0 UV-I 14 W/m 0,0 km/h (0 Bft)
05.08.2013 21:00 26,2 C 23,3 C 61 % 1011,0 hPa 0,0 l/m 0,00 h 0,00 h 0,0 UV-I 6 W/m 0,5 km/h (0 Bft)
05.08.2013 22:00 25,7 C 23,3 C 61 % 1011,1 hPa 0,0 l/m 0,00 h 0,00 h 0,0 UV-I 0 W/m 3,9 km/h (1 Bft)
05.08.2013 23:00 25,9 C 23,7 C 59 % 1010,9 hPa 0,0 l/m 0,00 h 0,00 h 0,0 UV-I 0 W/m 6,2 km/h (2 Bft)
06.08.2013 00:00 25,1 C 22,9 C 64 % 1011,0 hPa 0,0 l/m 0,00 h 0,10 h 0,0 UV-I 0 W/m 5,9 km/h (2 Bft)
06.08.2013 01:00 24,7 C 22,7 C 66 % 1011,3 hPa 0,0 l/m 0,00 h 0,00 h 0,0 UV-I 0 W/m 8,7 km/h (2 Bft)
06.08.2013 02:00 22,0 C 20,3 C 71 % 1012,4 hPa 0,0 l/m 0,00 h 0,00 h 0,0 UV-I 0 W/m 7,6 km/h (2 Bft)
06.08.2013 03:00 19,9 C 18,4 C 74 % 1013,3 hPa 0,0 l/m 0,00 h 0,00 h 0,0 UV-I 0 W/m 5,1 km/h (1 Bft)
06.08.2013 04:00 18,8 C 17,5 C 74 % 1013,5 hPa 0,0 l/m 0,00 h 0,00 h 0,0 UV-I 0 W/m 3,8 km/h (1 Bft)
06.08.2013 05:00 17,7 C 16,3 C 79 % 1014,0 hPa 0,0 l/m 0,00 h 0,00 h 0,0 UV-I 0 W/m 0,4 km/h (0 Bft)
06.08.2013 06:00 17,2 C 16,0 C 82 % 1014,4 hPa 0,0 l/m 0,00 h 0,00 h 0,0 UV-I 17 W/m 1,2 km/h (1 Bft)
06.08.2013 07:00 17,6 C 17,0 C 83 % 1015,0 hPa 0,0 l/m 0,00 h 0,00 h 0,0 UV-I 73 W/m 1,3 km/h (1 Bft)
06.08.2013 08:00 18,4 C 18,1 C 81 % 1015,4 hPa 0,0 l/m 0,13 h 0,00 h 0,5 UV-I 178 W/m 3,6 km/h (1 Bft)
06.08.2013 09:00 19,9 C 19,6 C 76 % 1015,8 hPa 0,0 l/m 0,97 h 0,00 h 1,1 UV-I 446 W/m 5,9 km/h (2 Bft)
06.08.2013 10:00 21,8 C 26,4 C 69 % 1015,9 hPa 0,0 l/m 0,83 h 0,00 h 2,2 UV-I 597 W/m 6,1 km/h (2 Bft)
06.08.2013 11:00 23,4 C 28,2 C 64 % 1015,9 hPa 0,0 l/m 0,90 h 0,00 h 3,4 UV-I 763 W/m 9,0 km/h (2 Bft)
06.08.2013 12:00 24,2 C 28,9 C 60 % 1015,7 hPa 0,0 l/m 0,80 h 0,00 h 3,8 UV-I 732 W/m 9,0 km/h (2 Bft)
06.08.2013 13:00 23,9 C 25,3 C 60 % 1015,8 hPa 0,0 l/m 0,27 h 0,00 h 2,5 UV-I 440 W/m 7,7 km/h (2 Bft)
06.08.2013 14:00 24,4 C 26,0 C 59 % 1015,6 hPa 0,0 l/m 0,60 h 0,00 h 3,0 UV-I 484 W/m 6,5 km/h (2 Bft)
06.08.2013 15:00 24,6 C 25,8 C 58 % 1015,4 hPa 0,0 l/m 0,47 h 0,00 h 2,2 UV-I 406 W/m 5,8 km/h (2 Bft)
06.08.2013 16:00 23,6 C 23,5 C 62 % 1015,5 hPa 0,0 l/m 0,00 h 0,00 h 0,7 UV-I 162 W/m 2,1 km/h (1 Bft)
06.08.2013 17:00 23,0 C 22,9 C 66 % 1014,7 hPa 0,0 l/m 0,40 h 0,00 h 0,8 UV-I 297 W/m 11,9 km/h (2 Bft)
06.08.2013 18:00 22,9 C 22,5 C 66 % 1014,6 hPa 0,0 l/m 0,47 h 0,00 h 0,8 UV-I 229 W/m 11,4 km/h (2 Bft)
06.08.2013 19:00 22,7 C 22,0 C 66 % 1014,6 hPa 0,0 l/m 0,00 h 0,00 h 0,0 UV-I 84 W/m 8,3 km/h (2 Bft)
06.08.2013 20:00 21,7 C 20,6 C 68 % 1014,8 hPa 0,0 l/m 0,00 h 0,00 h 0,0 UV-I 23 W/m 0,9 km/h (0 Bft)
06.08.2013 21:00 20,1 C 18,3 C 73 % 1014,8 hPa 0,0 l/m 0,00 h 0,00 h 0,0 UV-I 6 W/m 0,0 km/h (0 Bft)
06.08.2013 22:00 18,4 C 16,5 C 80 % 1014,9 hPa 0,0 l/m 0,00 h 0,00 h 0,0 UV-I 0 W/m 0,0 km/h (0 Bft)
06.08.2013 23:00 17,7 C 16,3 C 82 % 1014,8 hPa 0,0 l/m 0,00 h 0,00 h 0,0 UV-I 0 W/m 0,0 km/h (0 Bft)
07.08.2013 00:00 17,1 C 15,9 C 85 % 1014,6 hPa 0,0 l/m 0,00 h 0,00 h 0,0 UV-I 0 W/m 0,0 km/h (0 Bft)
07.08.2013 01:00 16,6 C 15,5 C 87 % 1014,1 hPa 0,0 l/m 0,00 h 0,00 h 0,0 UV-I 0 W/m 0,0 km/h (0 Bft)
07.08.2013 02:00 15,8 C 14,4 C 90 % 1013,4 hPa 0,0 l/m 0,00 h 0,00 h 0,0 UV-I 0 W/m 0,0 km/h (0 Bft)
07.08.2013 03:00 15,5 C 14,3 C 91 % 1013,4 hPa 0,0 l/m 0,00 h 0,00 h 0,0 UV-I 0 W/m 0,0 km/h (0 Bft)
07.08.2013 04:00 15,5 C 14,2 C 92 % 1013,2 hPa 0,0 l/m 0,00 h 0,00 h 0,0 UV-I 0 W/m 0,1 km/h (0 Bft)
07.08.2013 05:00 14,9 C 13,8 C 93 % 1012,5 hPa 0,0 l/m 0,00 h 0,00 h 0,0 UV-I 0 W/m 0,0 km/h (0 Bft)
07.08.2013 06:00 14,9 C 14,1 C 95 % 1012,0 hPa 0,0 l/m 0,07 h 0,00 h 0,0 UV-I 23 W/m 0,0 km/h (0 Bft)
07.08.2013 07:00 16,4 C 15,9 C 92 % 1012,0 hPa 0,0 l/m 0,00 h 0,00 h 0,0 UV-I 40 W/m 1,2 km/h (1 Bft)
07.08.2013 08:00 16,8 C 15,5 C 92 % 1011,5 hPa 0,0 l/m 0,00 h 0,57 h 0,0 UV-I 66 W/m 2,8 km/h (1 Bft)
07.08.2013 09:00 16,9 C 15,6 C 94 % 1010,5 hPa 0,8 l/m 0,00 h 0,73 h 0,0 UV-I 63 W/m 1,9 km/h (1 Bft)
07.08.2013 10:00 16,8 C 15,7 C 96 % 1010,0 hPa 0,4 l/m 0,00 h 0,77 h 0,0 UV-I 66 W/m 1,2 km/h (1 Bft)
07.08.2013 11:00 16,9 C 15,7 C 97 % 1009,6 hPa 0,2 l/m 0,00 h 0,67 h 0,0 UV-I 39 W/m 0,9 km/h (0 Bft)
07.08.2013 12:00 17,1 C 16,1 C 98 % 1009,1 hPa 1,6 l/m 0,00 h 0,97 h 0,0 UV-I 31 W/m 1,8 km/h (1 Bft)
07.08.2013 13:00 17,4 C 16,7 C 99 % 1008,6 hPa 0,6 l/m 0,00 h 0,37 h 0,5 UV-I 70 W/m 1,2 km/h (1 Bft)
07.08.2013 14:00 18,3 C 17,6 C 99 % 1008,1 hPa 0,0 l/m 0,00 h 0,13 h 0,7 UV-I 113 W/m 1,0 km/h (0 Bft)
07.08.2013 15:00 19,7 C 19,2 C 98 % 1008,0 hPa 0,0 l/m 0,00 h 0,00 h 1,1 UV-I 235 W/m 0,5 km/h (0 Bft)
07.08.2013 16:00 22,3 C 21,7 C 89 % 1008,0 hPa 0,0 l/m 0,77 h 0,00 h 2,2 UV-I 550 W/m 8,7 km/h (2 Bft)
07.08.2013 17:00 22,6 C 21,6 C 81 % 1008,4 hPa 0,0 l/m 0,80 h 0,00 h 1,4 UV-I 424 W/m 12,4 km/h (3 Bft)
07.08.2013 18:00 21,2 C 20,5 C 85 % 1008,8 hPa 0,0 l/m 0,00 h 0,00 h 0,5 UV-I 183 W/m 9,6 km/h (2 Bft)
07.08.2013 19:00 20,0 C 19,4 C 87 % 1009,2 hPa 0,0 l/m 0,27 h 0,03 h 0,0 UV-I 102 W/m 5,0 km/h (1 Bft)
07.08.2013 20:00 17,8 C 16,5 C 94 % 1009,5 hPa 0,4 l/m 0,30 h 0,80 h 0,0 UV-I 31 W/m 1,1 km/h (0 Bft)
07.08.2013 21:00 16,3 C 15,3 C 96 % 1010,3 hPa 0,0 l/m 0,00 h 0,00 h 0,0 UV-I 9 W/m 1,1 km/h (1 Bft)
07.08.2013 22:00 15,5 C 14,7 C 97 % 1011,3 hPa 0,0 l/m 0,00 h 0,00 h 0,0 UV-I 0 W/m 0,0 km/h (0 Bft)
07.08.2013 23:00 15,1 C 14,2 C 98 % 1011,9 hPa 0,0 l/m 0,00 h 0,00 h 0,0 UV-I 0 W/m 0,0 km/h (0 Bft)
08.08.2013 00:00 14,8 C 14,0 C 98 % 1012,5 hPa 0,0 l/m 0,00 h 0,00 h 0,0 UV-I 0 W/m 0,0 km/h (0 Bft)
08.08.2013 01:00 14,6 C 13,7 C 98 % 1012,8 hPa 0,0 l/m 0,00 h 0,00 h 0,0 UV-I 0 W/m 0,0 km/h (0 Bft)
08.08.2013 02:00 14,0 C 13,4 C 98 % 1013,4 hPa 0,0 l/m 0,00 h 0,00 h 0,0 UV-I 0 W/m 0,0 km/h (0 Bft)
08.08.2013 03:00 14,0 C 13,3 C 98 % 1013,7 hPa 0,0 l/m 0,00 h 0,00 h 0,0 UV-I 0 W/m 0,0 km/h (0 Bft)
08.08.2013 04:00 14,0 C 13,4 C 99 % 1013,8 hPa 0,0 l/m 0,00 h 0,00 h 0,0 UV-I 0 W/m 0,0 km/h (0 Bft)
08.08.2013 05:00 14,0 C 13,4 C 99 % 1014,3 hPa 0,0 l/m 0,00 h 0,00 h 0,0 UV-I 0 W/m 0,0 km/h (0 Bft)
08.08.2013 06:00 14,2 C 13,4 C 98 % 1015,0 hPa 0,2 l/m 0,00 h 0,07 h 0,0 UV-I 9 W/m 0,0 km/h (0 Bft)
08.08.2013 07:00 14,2 C 13,5 C 99 % 1015,4 hPa 0,0 l/m 0,00 h 0,23 h 0,0 UV-I 37 W/m 0,0 km/h (0 Bft)
08.08.2013 08:00 14,6 C 13,9 C 98 % 1015,9 hPa 0,0 l/m 0,03 h 0,00 h 0,0 UV-I 101 W/m 2,6 km/h (1 Bft)
08.08.2013 09:00 14,9 C 14,0 C 96 % 1016,4 hPa 0,0 l/m 0,00 h 0,00 h 0,0 UV-I 71 W/m 2,0 km/h (1 Bft)
08.08.2013 10:00 15,7 C 15,5 C 93 % 1017,2 hPa 0,0 l/m 0,00 h 0,00 h 0,6 UV-I 163 W/m 1,1 km/h (0 Bft)
08.08.2013 11:00 17,3 C 18,5 C 87 % 1017,7 hPa 0,0 l/m 0,43 h 0,00 h 2,0 UV-I 432 W/m 3,5 km/h (1 Bft)
08.08.2013 12:00 17,8 C 18,0 C 83 % 1017,8 hPa 0,0 l/m 0,07 h 0,00 h 1,6 UV-I 227 W/m 0,6 km/h (0 Bft)
08.08.2013 13:00 19,3 C 19,8 C 77 % 1018,1 hPa 0,0 l/m 0,40 h 0,00 h 2,2 UV-I 514 W/m 4,1 km/h (1 Bft)
08.08.2013 14:00 21,4 C 23,3 C 68 % 1018,4 hPa 0,0 l/m 0,47 h 0,00 h 2,8 UV-I 522 W/m 6,3 km/h (2 Bft)
08.08.2013 15:00 20,3 C 20,2 C 70 % 1018,6 hPa 0,0 l/m 0,00 h 0,00 h 0,9 UV-I 201 W/m 4,4 km/h (1 Bft)
08.08.2013 16:00 21,5 C 21,6 C 66 % 1018,6 hPa 0,0 l/m 0,43 h 0,00 h 2,0 UV-I 460 W/m 6,1 km/h (2 Bft)
08.08.2013 17:00 21,7 C 21,2 C 63 % 1018,7 hPa 0,0 l/m 0,33 h 0,00 h 1,0 UV-I 297 W/m 5,3 km/h (1 Bft)
08.08.2013 18:00 21,4 C 19,5 C 70 % 1018,8 hPa 0,0 l/m 0,10 h 0,00 h 0,6 UV-I 121 W/m 1,0 km/h (0 Bft)
08.08.2013 19:00 19,9 C 18,6 C 79 % 1019,1 hPa 0,0 l/m 0,00 h 0,00 h 0,0 UV-I 46 W/m 0,0 km/h (0 Bft)
08.08.2013 20:00 19,9 C 17,8 C 81 % 1019,6 hPa 0,0 l/m 0,00 h 0,00 h 0,0 UV-I 20 W/m 0,0 km/h (0 Bft)
08.08.2013 21:00 18,4 C 15,4 C 85 % 1019,9 hPa 0,0 l/m 0,00 h 0,00 h 0,0 UV-I 5 W/m 0,0 km/h (0 Bft)
08.08.2013 22:00 16,8 C 13,8 C 83 % 1020,4 hPa 0,0 l/m 0,00 h 0,00 h 0,0 UV-I 0 W/m 0,0 km/h (0 Bft)
08.08.2013 23:00 15,6 C 12,9 C 86 % 1020,6 hPa 0,0 l/m 0,00 h 0,00 h 0,0 UV-I 0 W/m 0,0 km/h (0 Bft)
09.08.2013 00:00 14,8 C 12,3 C 89 % 1020,7 hPa 0,0 l/m 0,00 h 0,00 h 0,0 UV-I 0 W/m 0,0 km/h (0 Bft)
09.08.2013 01:00 14,4 C 12,0 C 90 % 1020,8 hPa 0,0 l/m 0,00 h 0,00 h 0,0 UV-I 0 W/m 0,0 km/h (0 Bft)
09.08.2013 02:00 13,8 C 11,8 C 92 % 1020,8 hPa 0,0 l/m 0,00 h 0,00 h 0,0 UV-I 0 W/m 0,0 km/h (0 Bft)
09.08.2013 03:00 13,6 C 11,4 C 92 % 1020,7 hPa 0,0 l/m 0,00 h 0,00 h 0,0 UV-I 0 W/m 0,0 km/h (0 Bft)
09.08.2013 04:00 13,2 C 11,2 C 92 % 1020,7 hPa 0,0 l/m 0,00 h 0,00 h 0,0 UV-I 0 W/m 0,0 km/h (0 Bft)
09.08.2013 05:00 13,0 C 11,0 C 93 % 1020,6 hPa 0,0 l/m 0,00 h 0,00 h 0,0 UV-I 0 W/m 0,0 km/h (0 Bft)
09.08.2013 06:00 12,8 C 11,0 C 93 % 1020,5 hPa 0,0 l/m 0,00 h 0,00 h 0,0 UV-I 13 W/m 0,0 km/h (0 Bft)
09.08.2013 07:00 13,1 C 12,2 C 93 % 1020,5 hPa 0,0 l/m 0,00 h 0,00 h 0,0 UV-I 36 W/m 0,0 km/h (0 Bft)
09.08.2013 08:00 15,2 C 14,5 C 90 % 1020,4 hPa 0,0 l/m 0,57 h 0,00 h 0,0 UV-I 229 W/m 0,0 km/h (0 Bft)
09.08.2013 09:00 17,4 C 17,0 C 82 % 1020,4 hPa 0,0 l/m 0,20 h 0,00 h 0,6 UV-I 213 W/m 0,0 km/h (0 Bft)
09.08.2013 10:00 19,3 C 22,1 C 74 % 1020,5 hPa 0,0 l/m 0,60 h 0,00 h 1,7 UV-I 486 W/m 0,0 km/h (0 Bft)
09.08.2013 11:00 21,1 C 23,4 C 61 % 1020,4 hPa 0,0 l/m 0,90 h 0,00 h 2,8 UV-I 618 W/m 0,0 km/h (0 Bft)
09.08.2013 12:00 22,3 C 24,9 C 56 % 1020,2 hPa 0,0 l/m 0,67 h 0,00 h 3,3 UV-I 608 W/m 0,0 km/h (0 Bft)
09.08.2013 13:00 23,7 C 24,8 C 52 % 1019,9 hPa 0,0 l/m 0,90 h 0,00 h 2,5 UV-I 789 W/m 1,1 km/h (0 Bft)
09.08.2013 14:00 24,2 C 26,3 C 50 % 1019,5 hPa 0,0 l/m 0,70 h 0,00 h 3,4 UV-I 670 W/m 6,6 km/h (2 Bft)
09.08.2013 15:00 24,1 C 24,5 C 51 % 1019,2 hPa 0,0 l/m 0,47 h 0,00 h 2,1 UV-I 463 W/m 3,9 km/h (1 Bft)
09.08.2013 16:00 23,7 C 23,6 C 52 % 1019,0 hPa 0,0 l/m 0,17 h 0,00 h 1,0 UV-I 298 W/m 3,7 km/h (1 Bft)
09.08.2013 17:00 23,7 C 23,1 C 54 % 1018,6 hPa 0,0 l/m 0,43 h 0,00 h 0,9 UV-I 353 W/m 4,7 km/h (1 Bft)
09.08.2013 18:00 23,0 C 21,9 C 58 % 1018,8 hPa 0,0 l/m 0,13 h 0,00 h 0,7 UV-I 137 W/m 3,0 km/h (1 Bft)
09.08.2013 19:00 22,2 C 21,0 C 60 % 1018,9 hPa 0,0 l/m 0,00 h 0,00 h 0,0 UV-I 65 W/m 1,8 km/h (1 Bft)
09.08.2013 20:00 21,5 C 19,9 C 62 % 1019,1 hPa 0,0 l/m 0,27 h 0,00 h 0,0 UV-I 34 W/m 0,1 km/h (0 Bft)
09.08.2013 21:00 19,7 C 17,5 C 69 % 1019,4 hPa 0,0 l/m 0,00 h 0,00 h 0,0 UV-I 6 W/m 0,0 km/h (0 Bft)
09.08.2013 22:00 17,9 C 15,8 C 78 % 1019,6 hPa 0,0 l/m 0,00 h 0,00 h 0,0 UV-I 0 W/m 0,0 km/h (0 Bft)
09.08.2013 23:00 17,2 C 15,4 C 83 % 1019,4 hPa 0,0 l/m 0,00 h 0,00 h 0,0 UV-I 0 W/m 0,0 km/h (0 Bft)
10.08.2013 00:00 17,6 C 16,2 C 83 % 1019,4 hPa 0,0 l/m 0,00 h 0,00 h 0,0 UV-I 0 W/m 0,0 km/h (0 Bft)
10.08.2013 01:00 17,3 C 15,5 C 82 % 1019,3 hPa 0,0 l/m 0,00 h 0,00 h 0,0 UV-I 0 W/m 0,0 km/h (0 Bft)
10.08.2013 02:00 17,3 C 16,1 C 84 % 1019,2 hPa 0,0 l/m 0,00 h 0,00 h 0,0 UV-I 0 W/m 0,0 km/h (0 Bft)
10.08.2013 03:00 17,1 C 15,8 C 86 % 1019,2 hPa 0,0 l/m 0,00 h 0,00 h 0,0 UV-I 0 W/m 0,0 km/h (0 Bft)
10.08.2013 04:00 16,5 C 15,3 C 88 % 1019,1 hPa 0,0 l/m 0,00 h 0,00 h 0,0 UV-I 0 W/m 0,0 km/h (0 Bft)
10.08.2013 05:00 15,8 C 14,7 C 89 % 1019,0 hPa 0,0 l/m 0,00 h 0,00 h 0,0 UV-I 0 W/m 0,0 km/h (0 Bft)
10.08.2013 06:00 15,7 C 14,7 C 88 % 1019,0 hPa 0,0 l/m 0,00 h 0,00 h 0,0 UV-I 16 W/m 0,0 km/h (0 Bft)
10.08.2013 07:00 16,0 C 15,3 C 86 % 1019,2 hPa 0,0 l/m 0,00 h 0,00 h 0,0 UV-I 49 W/m 0,0 km/h (0 Bft)
10.08.2013 08:00 16,1 C 15,7 C 85 % 1019,5 hPa 0,0 l/m 0,00 h 0,00 h 0,0 UV-I 113 W/m 1,5 km/h (1 Bft)
10.08.2013 09:00 16,9 C 17,0 C 83 % 1019,5 hPa 0,0 l/m 0,07 h 0,00 h 0,6 UV-I 198 W/m 3,4 km/h (1 Bft)
10.08.2013 10:00 18,0 C 18,5 C 81 % 1019,6 hPa 0,0 l/m 0,03 h 0,00 h 0,9 UV-I 252 W/m 1,9 km/h (1 Bft)
10.08.2013 11:00 18,8 C 19,6 C 79 % 1019,9 hPa 0,0 l/m 0,00 h 0,00 h 1,7 UV-I 324 W/m 3,0 km/h (1 Bft)
10.08.2013 12:00 20,4 C 22,2 C 74 % 1019,9 hPa 0,0 l/m 0,63 h 0,00 h 2,6 UV-I 462 W/m 5,5 km/h (1 Bft)
10.08.2013 13:00 21,3 C 22,2 C 69 % 1019,8 hPa 0,0 l/m 0,10 h 0,00 h 2,0 UV-I 341 W/m 7,5 km/h (2 Bft)
10.08.2013 14:00 20,5 C 20,5 C 65 % 1019,9 hPa 0,0 l/m 0,00 h 0,07 h 1,6 UV-I 243 W/m 7,1 km/h (2 Bft)
10.08.2013 15:00 21,6 C 22,4 C 57 % 1020,0 hPa 0,0 l/m 0,33 h 0,00 h 2,1 UV-I 402 W/m 14,2 km/h (3 Bft)
10.08.2013 16:00 22,3 C 22,7 C 53 % 1020,0 hPa 0,0 l/m 0,67 h 0,00 h 2,0 UV-I 537 W/m 15,5 km/h (3 Bft)
10.08.2013 17:00 20,5 C 20,2 C 58 % 1020,3 hPa 0,0 l/m 0,53 h 0,00 h 1,1 UV-I 338 W/m 16,4 km/h (3 Bft)
10.08.2013 18:00 20,0 C 18,8 C 55 % 1020,4 hPa 0,0 l/m 0,40 h 0,00 h 0,7 UV-I 195 W/m 12,4 km/h (3 Bft)
10.08.2013 19:00 19,0 C 17,5 C 52 % 1020,4 hPa 0,0 l/m 0,00 h 0,00 h 0,0 UV-I 40 W/m 8,7 km/h (2 Bft)
10.08.2013 20:00 17,4 C 15,8 C 55 % 1020,7 hPa 0,0 l/m 0,00 h 0,00 h 0,0 UV-I 19 W/m 2,3 km/h (1 Bft)
10.08.2013 21:00 15,3 C 13,2 C 62 % 1020,9 hPa 0,0 l/m 0,00 h 0,00 h 0,0 UV-I 6 W/m 0,1 km/h (0 Bft)
10.08.2013 22:00 13,6 C 11,9 C 73 % 1021,0 hPa 0,0 l/m 0,00 h 0,00 h 0,0 UV-I 0 W/m 0,0 km/h (0 Bft)
10.08.2013 23:00 14,2 C 13,3 C 71 % 1021,0 hPa 0,0 l/m 0,00 h 0,00 h 0,0 UV-I 0 W/m 0,0 km/h (0 Bft)
11.08.2013 00:00 14,1 C 12,7 C 72 % 1021,0 hPa 0,0 l/m 0,00 h 0,00 h 0,0 UV-I 0 W/m 0,0 km/h (0 Bft)
11.08.2013 01:00 12,7 C 10,9 C 79 % 1020,8 hPa 0,0 l/m 0,00 h 0,00 h 0,0 UV-I 0 W/m 0,0 km/h (0 Bft)
11.08.2013 02:00 12,2 C 10,8 C 82 % 1020,4 hPa 0,0 l/m 0,00 h 0,00 h 0,0 UV-I 0 W/m 0,0 km/h (0 Bft)
11.08.2013 03:00 12,9 C 11,8 C 80 % 1020,1 hPa 0,0 l/m 0,00 h 0,00 h 0,0 UV-I 0 W/m 0,1 km/h (0 Bft)
11.08.2013 04:00 13,1 C 12,3 C 78 % 1019,8 hPa 0,0 l/m 0,00 h 0,00 h 0,0 UV-I 0 W/m 0,1 km/h (0 Bft)
11.08.2013 05:00 13,4 C 12,3 C 77 % 1019,5 hPa 0,0 l/m 0,00 h 0,00 h 0,0 UV-I 0 W/m 0,2 km/h (0 Bft)
11.08.2013 06:00 13,4 C 12,3 C 77 % 1019,3 hPa 0,0 l/m 0,00 h 0,00 h 0,0 UV-I 13 W/m 0,2 km/h (0 Bft)
11.08.2013 07:00 13,9 C 13,2 C 76 % 1019,5 hPa 0,0 l/m 0,00 h 0,00 h 0,0 UV-I 54 W/m 0,9 km/h (0 Bft)
11.08.2013 08:00 14,6 C 13,9 C 74 % 1019,6 hPa 0,0 l/m 0,07 h 0,00 h 0,0 UV-I 141 W/m 1,8 km/h (1 Bft)
11.08.2013 09:00 16,7 C 16,0 C 66 % 1019,5 hPa 0,0 l/m 0,67 h 0,00 h 0,8 UV-I 341 W/m 7,5 km/h (2 Bft)
11.08.2013 10:00 17,5 C 17,6 C 62 % 1019,4 hPa 0,0 l/m 0,17 h 0,00 h 1,7 UV-I 238 W/m 10,4 km/h (2 Bft)
11.08.2013 11:00 19,8 C 21,5 C 58 % 1019,1 hPa 0,0 l/m 0,57 h 0,00 h 2,5 UV-I 506 W/m 11,4 km/h (2 Bft)
11.08.2013 12:00 21,7 C 24,7 C 53 % 1018,8 hPa 0,0 l/m 0,63 h 0,00 h 3,4 UV-I 642 W/m 13,0 km/h (3 Bft)
11.08.2013 13:00 22,6 C 24,0 C 52 % 1018,4 hPa 0,0 l/m 0,83 h 0,00 h 2,6 UV-I 763 W/m 15,3 km/h (3 Bft)
11.08.2013 14:00 22,8 C 24,0 C 51 % 1017,9 hPa 0,0 l/m 0,63 h 0,00 h 2,9 UV-I 504 W/m 11,5 km/h (2 Bft)
11.08.2013 15:00 23,6 C 24,4 C 48 % 1017,3 hPa 0,0 l/m 0,67 h 0,00 h 2,8 UV-I 656 W/m 13,9 km/h (3 Bft)
11.08.2013 16:00 23,3 C 23,3 C 49 % 1016,7 hPa 0,0 l/m 0,27 h 0,00 h 1,7 UV-I 353 W/m 13,1 km/h (3 Bft)
11.08.2013 17:00 22,3 C 21,1 C 53 % 1016,5 hPa 0,0 l/m 0,00 h 0,10 h 0,7 UV-I 83 W/m 6,7 km/h (2 Bft)
11.08.2013 18:00 18,7 C 16,3 C 77 % 1016,7 hPa 0,2 l/m 0,00 h 0,50 h 0,0 UV-I 50 W/m 2,0 km/h (1 Bft)
11.08.2013 19:00 17,5 C 15,7 C 86 % 1016,6 hPa 0,4 l/m 0,00 h 0,60 h 0,0 UV-I 32 W/m 1,6 km/h (1 Bft)
11.08.2013 20:00 16,8 C 16,0 C 89 % 1016,5 hPa 0,2 l/m 0,00 h 0,43 h 0,0 UV-I 11 W/m 0,8 km/h (0 Bft)
11.08.2013 21:00 16,6 C 16,1 C 91 % 1016,5 hPa 0,0 l/m 0,00 h 0,03 h 0,0 UV-I 0 W/m 0,0 km/h (0 Bft)
11.08.2013 22:00 16,6 C 16,0 C 92 % 1016,6 hPa 0,2 l/m 0,00 h 0,23 h 0,0 UV-I 0 W/m 0,0 km/h (0 Bft)
11.08.2013 23:00 16,1 C 15,6 C 93 % 1016,4 hPa 0,0 l/m 0,00 h 0,00 h 0,0 UV-I 0 W/m 0,0 km/h (0 Bft)
Min-Datum _ 11.08.13 09.08.13 05.08.13 07.08.13 - - - - - 05.08.13
_ Min-Zeit 02:06 05:12 12:12 15:00 - - - - - 00:00
Minimum _ 12,1 C 10,7 C 43 % 1007,8 hPa - - - - - 0,0 km/h (0 Bft)
Max-Datum _ 05.08.13 05.08.13 07.08.13 10.08.13 07.08.13 05.08.13 06.08.13 08.08.13 11.08.13 07.08.13
_ Max-Zeit 15:48 12:28 13:08 22:52 12:06 08:24 00:16 14:10 15:18 16:58
Maximum _ 31,9 C 35,1 C 99 % 1021,2 hPa 1,6 l/m 0,03 h 0,03 h 4,8 UV-I 1011 W/m 38,6 km/h
SW (5 Bft)
Durchschnitt _ 19,1 C 18,5 C 76 % 1016,5 hPa #5,2 l/m #31:18 h #7:24 h 1,8 UV-I 259 W/m 3,3 km/h (1 Bft)
© 2013 W. Hausmann